sensor_id;sensor_type;location;lat;lon;timestamp;temperature;humidity
5578;DHT22;2811;51.900;10.734;2023-12-29T00:01:38;9.90;99.90
5578;DHT22;2811;51.900;10.734;2023-12-29T00:04:05;9.80;99.90
5578;DHT22;2811;51.900;10.734;2023-12-29T00:06:33;9.90;99.90
5578;DHT22;2811;51.900;10.734;2023-12-29T00:08:59;9.80;99.90
5578;DHT22;2811;51.900;10.734;2023-12-29T00:11:26;9.80;99.90
5578;DHT22;2811;51.900;10.734;2023-12-29T00:13:52;9.80;99.90
5578;DHT22;2811;51.900;10.734;2023-12-29T00:16:19;9.80;99.90
5578;DHT22;2811;51.900;10.734;2023-12-29T00:18:46;9.80;99.90
5578;DHT22;2811;51.900;10.734;2023-12-29T00:21:12;9.80;99.90
5578;DHT22;2811;51.900;10.734;2023-12-29T00:23:40;9.80;99.90
5578;DHT22;2811;51.900;10.734;2023-12-29T00:26:07;9.70;99.90
5578;DHT22;2811;51.900;10.734;2023-12-29T00:28:34;9.80;99.90
5578;DHT22;2811;51.900;10.734;2023-12-29T00:31:02;9.80;99.90
5578;DHT22;2811;51.900;10.734;2023-12-29T00:33:29;9.70;99.90
5578;DHT22;2811;51.900;10.734;2023-12-29T00:35:57;9.80;99.90
5578;DHT22;2811;51.900;10.734;2023-12-29T00:38:25;9.80;99.90
5578;DHT22;2811;51.900;10.734;2023-12-29T00:40:53;9.80;99.90
5578;DHT22;2811;51.900;10.734;2023-12-29T00:43:20;9.80;99.90
5578;DHT22;2811;51.900;10.734;2023-12-29T00:45:48;9.90;99.90
5578;DHT22;2811;51.900;10.734;2023-12-29T00:48:15;9.90;99.90
5578;DHT22;2811;51.900;10.734;2023-12-29T00:50:42;9.90;99.90
5578;DHT22;2811;51.900;10.734;2023-12-29T00:53:08;9.90;99.90
5578;DHT22;2811;51.900;10.734;2023-12-29T00:55:35;10.00;99.90
5578;DHT22;2811;51.900;10.734;2023-12-29T00:58:03;9.90;99.90
5578;DHT22;2811;51.900;10.734;2023-12-29T01:00:30;9.90;99.90
5578;DHT22;2811;51.900;10.734;2023-12-29T01:02:56;9.90;99.90
5578;DHT22;2811;51.900;10.734;2023-12-29T01:05:23;9.90;99.90
5578;DHT22;2811;51.900;10.734;2023-12-29T01:07:50;9.80;99.90
5578;DHT22;2811;51.900;10.734;2023-12-29T01:10:16;9.90;99.90
5578;DHT22;2811;51.900;10.734;2023-12-29T01:12:43;9.90;99.90
5578;DHT22;2811;51.900;10.734;2023-12-29T01:15:11;10.00;99.90
5578;DHT22;2811;51.900;10.734;2023-12-29T01:17:38;10.00;99.90
5578;DHT22;2811;51.900;10.734;2023-12-29T01:20:05;10.00;99.90
5578;DHT22;2811;51.900;10.734;2023-12-29T01:22:32;10.00;99.90
5578;DHT22;2811;51.900;10.734;2023-12-29T01:24:59;10.00;99.90
5578;DHT22;2811;51.900;10.734;2023-12-29T01:27:26;10.00;99.90
5578;DHT22;2811;51.900;10.734;2023-12-29T01:29:52;10.00;99.90
5578;DHT22;2811;51.900;10.734;2023-12-29T01:32:21;10.00;99.90
5578;DHT22;2811;51.900;10.734;2023-12-29T01:34:47;9.90;99.90
5578;DHT22;2811;51.900;10.734;2023-12-29T01:37:14;9.90;99.90
5578;DHT22;2811;51.900;10.734;2023-12-29T01:39:41;9.90;99.90
5578;DHT22;2811;51.900;10.734;2023-12-29T01:42:08;9.80;99.90
5578;DHT22;2811;51.900;10.734;2023-12-29T01:44:36;9.80;99.90
5578;DHT22;2811;51.900;10.734;2023-12-29T01:47:05;9.80;99.90
5578;DHT22;2811;51.900;10.734;2023-12-29T01:49:38;9.80;99.90
5578;DHT22;2811;51.900;10.734;2023-12-29T01:52:05;9.80;99.90
5578;DHT22;2811;51.900;10.734;2023-12-29T01:54:34;9.80;99.90
5578;DHT22;2811;51.900;10.734;2023-12-29T01:57:04;9.80;99.90
5578;DHT22;2811;51.900;10.734;2023-12-29T01:59:31;9.80;99.90
5578;DHT22;2811;51.900;10.734;2023-12-29T02:01:58;9.80;99.90
5578;DHT22;2811;51.900;10.734;2023-12-29T02:04:25;9.90;99.90
5578;DHT22;2811;51.900;10.734;2023-12-29T02:06:54;9.80;99.90
5578;DHT22;2811;51.900;10.734;2023-12-29T02:09:21;9.90;99.90
5578;DHT22;2811;51.900;10.734;2023-12-29T02:11:48;9.90;99.90
5578;DHT22;2811;51.900;10.734;2023-12-29T02:14:16;9.90;99.90
5578;DHT22;2811;51.900;10.734;2023-12-29T02:16:46;9.80;99.90
5578;DHT22;2811;51.900;10.734;2023-12-29T02:19:25;9.90;99.90
5578;DHT22;2811;51.900;10.734;2023-12-29T02:21:55;9.90;99.90
5578;DHT22;2811;51.900;10.734;2023-12-29T02:24:21;9.90;99.90
5578;DHT22;2811;51.900;10.734;2023-12-29T02:26:53;9.90;99.90
5578;DHT22;2811;51.900;10.734;2023-12-29T02:29:25;9.90;99.90
5578;DHT22;2811;51.900;10.734;2023-12-29T02:31:54;10.00;99.90
5578;DHT22;2811;51.900;10.734;2023-12-29T02:34:25;9.90;99.90
5578;DHT22;2811;51.900;10.734;2023-12-29T02:36:53;10.00;99.90
5578;DHT22;2811;51.900;10.734;2023-12-29T02:39:20;10.00;99.90
5578;DHT22;2811;51.900;10.734;2023-12-29T02:41:47;10.00;99.90
5578;DHT22;2811;51.900;10.734;2023-12-29T02:44:15;10.00;99.90
5578;DHT22;2811;51.900;10.734;2023-12-29T02:46:41;10.10;99.90
5578;DHT22;2811;51.900;10.734;2023-12-29T02:49:08;10.10;99.90
5578;DHT22;2811;51.900;10.734;2023-12-29T02:51:38;10.10;99.90
5578;DHT22;2811;51.900;10.734;2023-12-29T02:54:05;10.20;99.90
5578;DHT22;2811;51.900;10.734;2023-12-29T02:56:33;10.20;99.90
5578;DHT22;2811;51.900;10.734;2023-12-29T02:58:59;10.20;99.90
5578;DHT22;2811;51.900;10.734;2023-12-29T03:01:27;10.10;99.90
5578;DHT22;2811;51.900;10.734;2023-12-29T03:03:54;10.10;99.90
5578;DHT22;2811;51.900;10.734;2023-12-29T03:06:21;10.20;99.90
5578;DHT22;2811;51.900;10.734;2023-12-29T03:08:48;10.20;99.90
5578;DHT22;2811;51.900;10.734;2023-12-29T03:11:15;10.20;99.90
5578;DHT22;2811;51.900;10.734;2023-12-29T03:13:41;10.20;99.90
5578;DHT22;2811;51.900;10.734;2023-12-29T03:16:09;10.10;99.90
5578;DHT22;2811;51.900;10.734;2023-12-29T03:18:37;10.10;99.90
5578;DHT22;2811;51.900;10.734;2023-12-29T03:21:05;10.00;99.90
5578;DHT22;2811;51.900;10.734;2023-12-29T03:23:32;10.00;99.90
5578;DHT22;2811;51.900;10.734;2023-12-29T03:25:59;9.90;99.90
5578;DHT22;2811;51.900;10.734;2023-12-29T03:28:26;10.00;99.90
5578;DHT22;2811;51.900;10.734;2023-12-29T03:30:52;10.00;99.90
5578;DHT22;2811;51.900;10.734;2023-12-29T03:33:19;10.00;99.90
5578;DHT22;2811;51.900;10.734;2023-12-29T03:35:47;10.00;99.90
5578;DHT22;2811;51.900;10.734;2023-12-29T03:38:14;10.10;99.90
5578;DHT22;2811;51.900;10.734;2023-12-29T03:40:40;10.00;99.90
5578;DHT22;2811;51.900;10.734;2023-12-29T03:43:07;9.90;99.90
5578;DHT22;2811;51.900;10.734;2023-12-29T03:45:34;9.90;99.90
5578;DHT22;2811;51.900;10.734;2023-12-29T03:48:00;9.80;99.90
5578;DHT22;2811;51.900;10.734;2023-12-29T03:50:27;9.70;99.90
5578;DHT22;2811;51.900;10.734;2023-12-29T03:52:55;9.60;99.90
5578;DHT22;2811;51.900;10.734;2023-12-29T03:55:21;9.60;99.90
5578;DHT22;2811;51.900;10.734;2023-12-29T03:57:48;9.60;99.90
5578;DHT22;2811;51.900;10.734;2023-12-29T04:00:15;9.60;99.90
5578;DHT22;2811;51.900;10.734;2023-12-29T04:02:42;9.60;99.90
5578;DHT22;2811;51.900;10.734;2023-12-29T04:05:09;9.60;99.90
5578;DHT22;2811;51.900;10.734;2023-12-29T04:07:36;9.60;99.90
5578;DHT22;2811;51.900;10.734;2023-12-29T04:10:04;9.70;99.90
5578;DHT22;2811;51.900;10.734;2023-12-29T04:12:31;9.70;99.90
5578;DHT22;2811;51.900;10.734;2023-12-29T04:14:58;9.80;99.90
5578;DHT22;2811;51.900;10.734;2023-12-29T04:17:24;9.70;99.90
5578;DHT22;2811;51.900;10.734;2023-12-29T04:19:51;9.70;99.90
5578;DHT22;2811;51.900;10.734;2023-12-29T04:22:18;9.80;99.90
5578;DHT22;2811;51.900;10.734;2023-12-29T04:24:45;9.80;99.90
5578;DHT22;2811;51.900;10.734;2023-12-29T04:27:13;9.70;99.90
5578;DHT22;2811;51.900;10.734;2023-12-29T04:29:40;9.70;99.90
5578;DHT22;2811;51.900;10.734;2023-12-29T04:32:07;9.50;99.90
5578;DHT22;2811;51.900;10.734;2023-12-29T04:34:34;9.50;99.90
5578;DHT22;2811;51.900;10.734;2023-12-29T04:37:00;9.40;99.90
5578;DHT22;2811;51.900;10.734;2023-12-29T04:39:27;9.50;99.90
5578;DHT22;2811;51.900;10.734;2023-12-29T04:41:54;9.60;99.90
5578;DHT22;2811;51.900;10.734;2023-12-29T04:44:22;9.50;99.90
5578;DHT22;2811;51.900;10.734;2023-12-29T04:46:48;9.60;99.90
5578;DHT22;2811;51.900;10.734;2023-12-29T04:49:15;9.50;99.90
5578;DHT22;2811;51.900;10.734;2023-12-29T04:51:41;9.50;99.90
5578;DHT22;2811;51.900;10.734;2023-12-29T04:54:08;9.50;99.90
5578;DHT22;2811;51.900;10.734;2023-12-29T04:56:35;9.50;99.90
5578;DHT22;2811;51.900;10.734;2023-12-29T04:59:01;9.60;99.90
5578;DHT22;2811;51.900;10.734;2023-12-29T05:01:29;9.50;99.90
5578;DHT22;2811;51.900;10.734;2023-12-29T05:03:56;9.50;99.90
5578;DHT22;2811;51.900;10.734;2023-12-29T05:06:23;9.50;99.90
5578;DHT22;2811;51.900;10.734;2023-12-29T05:08:49;9.50;99.90
5578;DHT22;2811;51.900;10.734;2023-12-29T05:11:16;9.40;99.90
5578;DHT22;2811;51.900;10.734;2023-12-29T05:13:43;9.40;99.90
5578;DHT22;2811;51.900;10.734;2023-12-29T05:16:09;9.40;99.90
5578;DHT22;2811;51.900;10.734;2023-12-29T05:18:37;9.40;99.90
5578;DHT22;2811;51.900;10.734;2023-12-29T05:21:05;9.30;99.90
5578;DHT22;2811;51.900;10.734;2023-12-29T05:23:32;9.30;99.90
5578;DHT22;2811;51.900;10.734;2023-12-29T05:25:58;9.30;99.90
5578;DHT22;2811;51.900;10.734;2023-12-29T05:28:25;9.40;99.90
5578;DHT22;2811;51.900;10.734;2023-12-29T05:30:52;9.50;99.90
5578;DHT22;2811;51.900;10.734;2023-12-29T05:33:19;9.40;99.90
5578;DHT22;2811;51.900;10.734;2023-12-29T05:35:47;9.50;99.90
5578;DHT22;2811;51.900;10.734;2023-12-29T05:38:13;9.40;99.90
5578;DHT22;2811;51.900;10.734;2023-12-29T05:40:40;9.40;99.90
5578;DHT22;2811;51.900;10.734;2023-12-29T05:43:07;9.50;99.90
5578;DHT22;2811;51.900;10.734;2023-12-29T05:45:33;9.50;99.90
5578;DHT22;2811;51.900;10.734;2023-12-29T05:48:00;9.50;99.90
5578;DHT22;2811;51.900;10.734;2023-12-29T05:50:26;9.50;99.90
5578;DHT22;2811;51.900;10.734;2023-12-29T05:52:54;9.50;99.90
5578;DHT22;2811;51.900;10.734;2023-12-29T05:55:21;9.50;99.90
5578;DHT22;2811;51.900;10.734;2023-12-29T05:57:48;9.30;99.90
5578;DHT22;2811;51.900;10.734;2023-12-29T06:00:15;9.20;99.90
5578;DHT22;2811;51.900;10.734;2023-12-29T06:02:42;9.20;99.90
5578;DHT22;2811;51.900;10.734;2023-12-29T06:05:10;9.30;99.90
5578;DHT22;2811;51.900;10.734;2023-12-29T06:07:37;9.40;99.90
5578;DHT22;2811;51.900;10.734;2023-12-29T06:10:06;9.30;99.90
5578;DHT22;2811;51.900;10.734;2023-12-29T06:12:33;9.40;99.90
5578;DHT22;2811;51.900;10.734;2023-12-29T06:15:00;9.40;99.90
5578;DHT22;2811;51.900;10.734;2023-12-29T06:17:27;9.50;99.90
5578;DHT22;2811;51.900;10.734;2023-12-29T06:19:53;9.50;99.90
5578;DHT22;2811;51.900;10.734;2023-12-29T06:22:20;9.50;99.90
5578;DHT22;2811;51.900;10.734;2023-12-29T06:24:47;9.40;99.90
5578;DHT22;2811;51.900;10.734;2023-12-29T06:27:16;9.40;99.90
5578;DHT22;2811;51.900;10.734;2023-12-29T06:29:42;9.40;99.90
5578;DHT22;2811;51.900;10.734;2023-12-29T06:32:09;9.40;99.90
5578;DHT22;2811;51.900;10.734;2023-12-29T06:34:35;9.40;99.90
5578;DHT22;2811;51.900;10.734;2023-12-29T06:37:02;9.30;99.90
5578;DHT22;2811;51.900;10.734;2023-12-29T06:39:29;9.30;99.90
5578;DHT22;2811;51.900;10.734;2023-12-29T06:41:56;9.40;99.90
5578;DHT22;2811;51.900;10.734;2023-12-29T06:44:24;9.40;99.90
5578;DHT22;2811;51.900;10.734;2023-12-29T06:46:50;9.50;99.90
5578;DHT22;2811;51.900;10.734;2023-12-29T06:49:17;9.50;99.90
5578;DHT22;2811;51.900;10.734;2023-12-29T06:51:44;9.60;99.90
5578;DHT22;2811;51.900;10.734;2023-12-29T06:54:11;9.60;99.90
5578;DHT22;2811;51.900;10.734;2023-12-29T06:56:37;9.70;99.90
5578;DHT22;2811;51.900;10.734;2023-12-29T06:59:04;9.70;99.90
5578;DHT22;2811;51.900;10.734;2023-12-29T07:01:32;9.80;99.90
5578;DHT22;2811;51.900;10.734;2023-12-29T07:03:59;9.80;99.90
5578;DHT22;2811;51.900;10.734;2023-12-29T07:06:25;9.90;99.90
5578;DHT22;2811;51.900;10.734;2023-12-29T07:08:52;9.90;99.90
5578;DHT22;2811;51.900;10.734;2023-12-29T07:11:18;9.90;99.90
5578;DHT22;2811;51.900;10.734;2023-12-29T07:13:45;9.80;99.90
5578;DHT22;2811;51.900;10.734;2023-12-29T07:16:12;9.80;99.90
5578;DHT22;2811;51.900;10.734;2023-12-29T07:18:40;9.80;99.90
5578;DHT22;2811;51.900;10.734;2023-12-29T07:21:07;9.80;99.90
5578;DHT22;2811;51.900;10.734;2023-12-29T07:23:34;9.80;99.90
5578;DHT22;2811;51.900;10.734;2023-12-29T07:26:01;9.80;99.90
5578;DHT22;2811;51.900;10.734;2023-12-29T07:28:27;9.80;99.90
5578;DHT22;2811;51.900;10.734;2023-12-29T07:30:54;9.80;99.90
5578;DHT22;2811;51.900;10.734;2023-12-29T07:33:21;9.90;99.90
5578;DHT22;2811;51.900;10.734;2023-12-29T07:35:50;9.90;99.90
5578;DHT22;2811;51.900;10.734;2023-12-29T07:38:17;10.00;99.90
5578;DHT22;2811;51.900;10.734;2023-12-29T07:40:44;10.00;99.90
5578;DHT22;2811;51.900;10.734;2023-12-29T07:43:10;9.90;99.90
5578;DHT22;2811;51.900;10.734;2023-12-29T07:45:37;9.90;99.90
5578;DHT22;2811;51.900;10.734;2023-12-29T07:48:04;10.00;99.90
5578;DHT22;2811;51.900;10.734;2023-12-29T07:50:31;10.00;99.90
5578;DHT22;2811;51.900;10.734;2023-12-29T07:52:59;10.10;99.90
5578;DHT22;2811;51.900;10.734;2023-12-29T07:55:28;10.10;99.90
5578;DHT22;2811;51.900;10.734;2023-12-29T07:57:55;10.00;99.90
5578;DHT22;2811;51.900;10.734;2023-12-29T08:00:21;10.00;99.90
5578;DHT22;2811;51.900;10.734;2023-12-29T08:02:48;10.10;99.90
5578;DHT22;2811;51.900;10.734;2023-12-29T08:05:15;10.00;99.90
5578;DHT22;2811;51.900;10.734;2023-12-29T08:07:42;10.00;99.90
5578;DHT22;2811;51.900;10.734;2023-12-29T08:10:11;10.00;99.90
5578;DHT22;2811;51.900;10.734;2023-12-29T08:12:37;10.00;99.90
5578;DHT22;2811;51.900;10.734;2023-12-29T08:15:05;10.00;99.90
5578;DHT22;2811;51.900;10.734;2023-12-29T08:17:32;10.00;99.90
5578;DHT22;2811;51.900;10.734;2023-12-29T08:19:59;10.00;99.90
5578;DHT22;2811;51.900;10.734;2023-12-29T08:22:29;10.00;99.90
5578;DHT22;2811;51.900;10.734;2023-12-29T08:24:55;10.00;99.90
5578;DHT22;2811;51.900;10.734;2023-12-29T08:27:24;10.10;99.90
5578;DHT22;2811;51.900;10.734;2023-12-29T08:29:52;10.10;99.90
5578;DHT22;2811;51.900;10.734;2023-12-29T08:32:19;10.10;99.90
5578;DHT22;2811;51.900;10.734;2023-12-29T08:34:46;10.10;99.90
5578;DHT22;2811;51.900;10.734;2023-12-29T08:37:13;10.10;99.90
5578;DHT22;2811;51.900;10.734;2023-12-29T08:39:45;10.20;99.90
5578;DHT22;2811;51.900;10.734;2023-12-29T08:42:12;10.20;99.90
5578;DHT22;2811;51.900;10.734;2023-12-29T08:44:40;10.30;99.90
5578;DHT22;2811;51.900;10.734;2023-12-29T08:47:06;10.30;99.90
5578;DHT22;2811;51.900;10.734;2023-12-29T08:49:33;10.40;99.90
5578;DHT22;2811;51.900;10.734;2023-12-29T08:52:00;10.50;99.90
5578;DHT22;2811;51.900;10.734;2023-12-29T08:54:27;10.50;99.90
5578;DHT22;2811;51.900;10.734;2023-12-29T08:56:53;10.50;99.90
5578;DHT22;2811;51.900;10.734;2023-12-29T08:59:20;10.70;99.90
5578;DHT22;2811;51.900;10.734;2023-12-29T09:01:48;10.70;99.90
5578;DHT22;2811;51.900;10.734;2023-12-29T09:04:15;10.70;99.90
5578;DHT22;2811;51.900;10.734;2023-12-29T09:06:42;10.70;99.90
5578;DHT22;2811;51.900;10.734;2023-12-29T09:09:08;10.70;99.90
5578;DHT22;2811;51.900;10.734;2023-12-29T09:11:38;10.80;99.90
5578;DHT22;2811;51.900;10.734;2023-12-29T09:14:04;10.80;99.90
5578;DHT22;2811;51.900;10.734;2023-12-29T09:16:31;11.00;99.90
5578;DHT22;2811;51.900;10.734;2023-12-29T09:18:59;11.10;99.90
5578;DHT22;2811;51.900;10.734;2023-12-29T09:21:26;11.20;99.90
5578;DHT22;2811;51.900;10.734;2023-12-29T09:23:52;11.30;99.90
5578;DHT22;2811;51.900;10.734;2023-12-29T09:26:19;11.30;99.90
5578;DHT22;2811;51.900;10.734;2023-12-29T09:28:47;11.20;99.90
5578;DHT22;2811;51.900;10.734;2023-12-29T09:31:14;11.20;99.90
5578;DHT22;2811;51.900;10.734;2023-12-29T09:33:41;11.20;99.90
5578;DHT22;2811;51.900;10.734;2023-12-29T09:36:09;11.30;99.90
5578;DHT22;2811;51.900;10.734;2023-12-29T09:38:35;11.40;99.90
5578;DHT22;2811;51.900;10.734;2023-12-29T09:41:05;11.30;99.90
5578;DHT22;2811;51.900;10.734;2023-12-29T09:43:36;11.30;99.90
5578;DHT22;2811;51.900;10.734;2023-12-29T09:46:03;11.20;99.90
5578;DHT22;2811;51.900;10.734;2023-12-29T09:48:31;11.00;99.90
5578;DHT22;2811;51.900;10.734;2023-12-29T09:51:00;11.10;99.90
5578;DHT22;2811;51.900;10.734;2023-12-29T09:53:30;11.10;99.90
5578;DHT22;2811;51.900;10.734;2023-12-29T09:55:58;11.10;99.90
5578;DHT22;2811;51.900;10.734;2023-12-29T09:58:26;11.00;99.90
5578;DHT22;2811;51.900;10.734;2023-12-29T10:00:53;11.00;99.90
5578;DHT22;2811;51.900;10.734;2023-12-29T10:03:20;10.80;99.90
5578;DHT22;2811;51.900;10.734;2023-12-29T10:05:50;10.80;99.90
5578;DHT22;2811;51.900;10.734;2023-12-29T10:08:18;10.80;99.90
5578;DHT22;2811;51.900;10.734;2023-12-29T10:10:48;10.70;99.90
5578;DHT22;2811;51.900;10.734;2023-12-29T10:13:16;10.60;99.90
5578;DHT22;2811;51.900;10.734;2023-12-29T10:15:49;10.60;99.90
5578;DHT22;2811;51.900;10.734;2023-12-29T10:18:21;10.60;99.90
5578;DHT22;2811;51.900;10.734;2023-12-29T10:20:52;10.70;99.90
5578;DHT22;2811;51.900;10.734;2023-12-29T10:23:26;10.80;99.90
5578;DHT22;2811;51.900;10.734;2023-12-29T10:25:56;10.80;99.90
5578;DHT22;2811;51.900;10.734;2023-12-29T10:28:23;10.60;99.90
5578;DHT22;2811;51.900;10.734;2023-12-29T10:30:50;10.70;99.90
5578;DHT22;2811;51.900;10.734;2023-12-29T10:33:19;10.70;99.90
5578;DHT22;2811;51.900;10.734;2023-12-29T10:35:56;10.60;99.90
5578;DHT22;2811;51.900;10.734;2023-12-29T10:38:23;10.70;99.90
5578;DHT22;2811;51.900;10.734;2023-12-29T10:40:50;10.50;99.90
5578;DHT22;2811;51.900;10.734;2023-12-29T10:43:23;10.60;99.90
5578;DHT22;2811;51.900;10.734;2023-12-29T10:46:05;10.70;99.90
5578;DHT22;2811;51.900;10.734;2023-12-29T10:48:33;10.80;99.90
5578;DHT22;2811;51.900;10.734;2023-12-29T10:50:59;10.90;99.90
5578;DHT22;2811;51.900;10.734;2023-12-29T10:53:29;11.00;99.90
5578;DHT22;2811;51.900;10.734;2023-12-29T10:55:56;11.00;99.90
5578;DHT22;2811;51.900;10.734;2023-12-29T10:58:25;10.90;99.90
5578;DHT22;2811;51.900;10.734;2023-12-29T11:03:21;10.80;99.90
5578;DHT22;2811;51.900;10.734;2023-12-29T11:05:49;10.80;99.90
5578;DHT22;2811;51.900;10.734;2023-12-29T11:08:16;10.80;99.90
5578;DHT22;2811;51.900;10.734;2023-12-29T11:10:43;10.80;99.90
5578;DHT22;2811;51.900;10.734;2023-12-29T11:13:11;10.80;99.90
5578;DHT22;2811;51.900;10.734;2023-12-29T11:15:42;10.80;99.90
5578;DHT22;2811;51.900;10.734;2023-12-29T11:18:12;10.70;99.90
5578;DHT22;2811;51.900;10.734;2023-12-29T11:20:39;10.70;99.90
5578;DHT22;2811;51.900;10.734;2023-12-29T11:23:07;10.70;99.90
5578;DHT22;2811;51.900;10.734;2023-12-29T11:25:35;10.80;99.90
5578;DHT22;2811;51.900;10.734;2023-12-29T11:28:02;10.60;99.90
5578;DHT22;2811;51.900;10.734;2023-12-29T11:30:29;10.60;99.90
5578;DHT22;2811;51.900;10.734;2023-12-29T11:33:01;10.60;99.90
5578;DHT22;2811;51.900;10.734;2023-12-29T11:35:33;10.70;99.90
5578;DHT22;2811;51.900;10.734;2023-12-29T11:38:24;10.70;99.90
5578;DHT22;2811;51.900;10.734;2023-12-29T11:40:59;10.80;99.90
5578;DHT22;2811;51.900;10.734;2023-12-29T11:43:27;10.80;99.90
5578;DHT22;2811;51.900;10.734;2023-12-29T11:45:54;10.70;99.90
5578;DHT22;2811;51.900;10.734;2023-12-29T11:48:55;10.90;99.90
5578;DHT22;2811;51.900;10.734;2023-12-29T11:51:33;11.00;99.90
5578;DHT22;2811;51.900;10.734;2023-12-29T11:54:00;11.10;99.90
5578;DHT22;2811;51.900;10.734;2023-12-29T11:56:34;11.00;99.90
5578;DHT22;2811;51.900;10.734;2023-12-29T11:59:15;11.10;99.90
5578;DHT22;2811;51.900;10.734;2023-12-29T12:01:43;11.10;99.90
5578;DHT22;2811;51.900;10.734;2023-12-29T12:04:35;11.10;99.90
5578;DHT22;2811;51.900;10.734;2023-12-29T12:07:04;11.10;99.90
5578;DHT22;2811;51.900;10.734;2023-12-29T12:09:32;11.10;99.90
5578;DHT22;2811;51.900;10.734;2023-12-29T12:12:02;11.10;99.90
5578;DHT22;2811;51.900;10.734;2023-12-29T12:14:47;11.20;99.90
5578;DHT22;2811;51.900;10.734;2023-12-29T12:17:27;11.10;99.90
5578;DHT22;2811;51.900;10.734;2023-12-29T12:19:58;11.10;99.90
5578;DHT22;2811;51.900;10.734;2023-12-29T12:22:25;11.20;99.90
5578;DHT22;2811;51.900;10.734;2023-12-29T12:24:55;11.30;99.90
5578;DHT22;2811;51.900;10.734;2023-12-29T12:27:22;11.30;99.90
5578;DHT22;2811;51.900;10.734;2023-12-29T12:29:55;11.40;99.90
5578;DHT22;2811;51.900;10.734;2023-12-29T12:32:23;11.40;99.90
5578;DHT22;2811;51.900;10.734;2023-12-29T12:34:49;11.40;99.90
5578;DHT22;2811;51.900;10.734;2023-12-29T12:37:20;11.40;99.90
5578;DHT22;2811;51.900;10.734;2023-12-29T12:39:47;11.40;99.90
5578;DHT22;2811;51.900;10.734;2023-12-29T12:42:15;11.40;99.90
5578;DHT22;2811;51.900;10.734;2023-12-29T12:44:47;11.40;99.90
5578;DHT22;2811;51.900;10.734;2023-12-29T12:47:18;11.40;99.90
5578;DHT22;2811;51.900;10.734;2023-12-29T12:49:49;11.40;99.90
5578;DHT22;2811;51.900;10.734;2023-12-29T12:52:16;11.40;99.90
5578;DHT22;2811;51.900;10.734;2023-12-29T12:54:44;11.50;99.90
5578;DHT22;2811;51.900;10.734;2023-12-29T12:57:12;11.40;99.90
5578;DHT22;2811;51.900;10.734;2023-12-29T12:59:39;11.40;99.90
5578;DHT22;2811;51.900;10.734;2023-12-29T13:02:08;11.30;99.90
5578;DHT22;2811;51.900;10.734;2023-12-29T13:04:35;11.40;99.90
5578;DHT22;2811;51.900;10.734;2023-12-29T13:07:02;11.40;99.90
5578;DHT22;2811;51.900;10.734;2023-12-29T13:09:29;11.40;99.90
5578;DHT22;2811;51.900;10.734;2023-12-29T13:12:09;11.40;99.90
5578;DHT22;2811;51.900;10.734;2023-12-29T13:14:35;11.20;99.90
5578;DHT22;2811;51.900;10.734;2023-12-29T13:17:06;11.10;99.90
5578;DHT22;2811;51.900;10.734;2023-12-29T13:19:32;11.10;99.90
5578;DHT22;2811;51.900;10.734;2023-12-29T13:22:00;10.90;99.90
5578;DHT22;2811;51.900;10.734;2023-12-29T13:24:28;10.90;99.90
5578;DHT22;2811;51.900;10.734;2023-12-29T13:26:58;10.90;99.90
5578;DHT22;2811;51.900;10.734;2023-12-29T13:29:30;10.90;99.90
5578;DHT22;2811;51.900;10.734;2023-12-29T13:32:00;11.00;99.90
5578;DHT22;2811;51.900;10.734;2023-12-29T13:34:32;10.90;99.90
5578;DHT22;2811;51.900;10.734;2023-12-29T13:37:02;10.90;99.90
5578;DHT22;2811;51.900;10.734;2023-12-29T13:39:37;10.90;99.90
5578;DHT22;2811;51.900;10.734;2023-12-29T13:42:05;10.90;99.90
5578;DHT22;2811;51.900;10.734;2023-12-29T13:44:35;10.90;99.90
5578;DHT22;2811;51.900;10.734;2023-12-29T13:47:03;11.00;99.90
5578;DHT22;2811;51.900;10.734;2023-12-29T13:49:31;11.00;99.90
5578;DHT22;2811;51.900;10.734;2023-12-29T13:52:02;11.00;99.90
5578;DHT22;2811;51.900;10.734;2023-12-29T13:54:29;11.00;99.90
5578;DHT22;2811;51.900;10.734;2023-12-29T13:56:55;10.60;99.90
5578;DHT22;2811;51.900;10.734;2023-12-29T13:59:31;11.00;99.90
5578;DHT22;2811;51.900;10.734;2023-12-29T14:02:18;10.90;99.90
5578;DHT22;2811;51.900;10.734;2023-12-29T14:04:45;10.80;99.90
5578;DHT22;2811;51.900;10.734;2023-12-29T14:07:13;10.70;99.90
5578;DHT22;2811;51.900;10.734;2023-12-29T14:09:40;10.60;99.90
5578;DHT22;2811;51.900;10.734;2023-12-29T14:12:07;10.50;99.90
5578;DHT22;2811;51.900;10.734;2023-12-29T14:14:33;10.50;99.90
5578;DHT22;2811;51.900;10.734;2023-12-29T14:17:01;10.40;99.90
5578;DHT22;2811;51.900;10.734;2023-12-29T14:19:34;10.40;99.90
5578;DHT22;2811;51.900;10.734;2023-12-29T14:22:01;10.40;99.90
5578;DHT22;2811;51.900;10.734;2023-12-29T14:24:28;10.40;99.90
5578;DHT22;2811;51.900;10.734;2023-12-29T14:26:56;10.50;99.90
5578;DHT22;2811;51.900;10.734;2023-12-29T14:29:24;10.60;99.90
5578;DHT22;2811;51.900;10.734;2023-12-29T14:31:51;10.70;99.90
5578;DHT22;2811;51.900;10.734;2023-12-29T14:34:19;10.60;99.90
5578;DHT22;2811;51.900;10.734;2023-12-29T14:36:46;10.70;99.90
5578;DHT22;2811;51.900;10.734;2023-12-29T14:39:13;10.70;99.90
5578;DHT22;2811;51.900;10.734;2023-12-29T14:41:40;10.60;99.90
5578;DHT22;2811;51.900;10.734;2023-12-29T14:44:07;10.70;99.90
5578;DHT22;2811;51.900;10.734;2023-12-29T14:46:35;10.60;99.90
5578;DHT22;2811;51.900;10.734;2023-12-29T14:49:02;10.70;99.90
5578;DHT22;2811;51.900;10.734;2023-12-29T14:51:30;10.70;99.90
5578;DHT22;2811;51.900;10.734;2023-12-29T14:53:57;10.70;99.90
5578;DHT22;2811;51.900;10.734;2023-12-29T14:56:24;10.80;99.90
5578;DHT22;2811;51.900;10.734;2023-12-29T14:58:50;10.80;99.90
5578;DHT22;2811;51.900;10.734;2023-12-29T15:01:17;10.80;99.90
5578;DHT22;2811;51.900;10.734;2023-12-29T15:03:44;10.80;99.90
5578;DHT22;2811;51.900;10.734;2023-12-29T15:06:10;10.90;99.90
5578;DHT22;2811;51.900;10.734;2023-12-29T15:08:38;10.80;99.90
5578;DHT22;2811;51.900;10.734;2023-12-29T15:11:06;10.80;99.90
5578;DHT22;2811;51.900;10.734;2023-12-29T15:13:33;10.90;99.90
5578;DHT22;2811;51.900;10.734;2023-12-29T15:16:01;10.90;99.90
5578;DHT22;2811;51.900;10.734;2023-12-29T15:18:29;11.00;99.90
5578;DHT22;2811;51.900;10.734;2023-12-29T15:20:56;10.90;99.90
5578;DHT22;2811;51.900;10.734;2023-12-29T15:23:23;10.80;99.90
5578;DHT22;2811;51.900;10.734;2023-12-29T15:25:51;10.90;99.90
5578;DHT22;2811;51.900;10.734;2023-12-29T15:28:18;10.90;99.90
5578;DHT22;2811;51.900;10.734;2023-12-29T15:30:45;10.80;99.90
5578;DHT22;2811;51.900;10.734;2023-12-29T15:33:12;10.80;99.90
5578;DHT22;2811;51.900;10.734;2023-12-29T15:35:39;10.70;99.90
5578;DHT22;2811;51.900;10.734;2023-12-29T15:38:06;10.60;99.90
5578;DHT22;2811;51.900;10.734;2023-12-29T15:40:33;10.60;99.90
5578;DHT22;2811;51.900;10.734;2023-12-29T15:43:01;10.50;99.90
5578;DHT22;2811;51.900;10.734;2023-12-29T15:45:29;10.50;99.90
5578;DHT22;2811;51.900;10.734;2023-12-29T15:47:56;10.50;99.90
5578;DHT22;2811;51.900;10.734;2023-12-29T15:50:23;10.40;99.90
5578;DHT22;2811;51.900;10.734;2023-12-29T15:52:49;10.30;99.90
5578;DHT22;2811;51.900;10.734;2023-12-29T15:55:17;10.30;99.90
5578;DHT22;2811;51.900;10.734;2023-12-29T15:57:44;10.20;99.90
5578;DHT22;2811;51.900;10.734;2023-12-29T16:00:13;10.30;99.90